sensor_id;sensor_type;location;lat;lon;timestamp;pressure;altitude;pressure_sealevel;temperature;humidity
10510;BME280;5303;53.266;10.410;2023-05-23T00:01:37;100985.72;;;15.54;90.87
10510;BME280;5303;53.266;10.410;2023-05-23T00:04:03;100986.63;;;15.53;90.79
10510;BME280;5303;53.266;10.410;2023-05-23T00:06:29;100982.19;;;15.52;91.12
10510;BME280;5303;53.266;10.410;2023-05-23T00:08:55;100991.06;;;15.51;90.92
10510;BME280;5303;53.266;10.410;2023-05-23T00:11:21;100981.38;;;15.49;90.95
10510;BME280;5303;53.266;10.410;2023-05-23T00:13:54;100991.22;;;15.45;90.97
10510;BME280;5303;53.266;10.410;2023-05-23T00:16:19;100991.22;;;15.45;91.00
10510;BME280;5303;53.266;10.410;2023-05-23T00:18:45;100982.41;;;15.43;91.02
10510;BME280;5303;53.266;10.410;2023-05-23T00:21:11;100978.88;;;15.41;91.00
10510;BME280;5303;53.266;10.410;2023-05-23T00:23:37;100964.72;;;15.39;91.06
10510;BME280;5303;53.266;10.410;2023-05-23T00:26:06;100965.66;;;15.38;90.85
10510;BME280;5303;53.266;10.410;2023-05-23T00:28:32;100967.53;;;15.33;90.93
10510;BME280;5303;53.266;10.410;2023-05-23T00:30:57;100973.72;;;15.32;91.09
10510;BME280;5303;53.266;10.410;2023-05-23T00:33:22;100974.69;;;15.30;90.90
10510;BME280;5303;53.266;10.410;2023-05-23T00:35:47;100973.00;;;15.25;91.05
10510;BME280;5303;53.266;10.410;2023-05-23T00:38:13;100973.06;;;15.22;90.72
10510;BME280;5303;53.266;10.410;2023-05-23T00:40:39;100969.53;;;15.20;90.78
10510;BME280;5303;53.266;10.410;2023-05-23T00:43:05;100976.63;;;15.20;90.73
10510;BME280;5303;53.266;10.410;2023-05-23T00:45:30;100971.31;;;15.20;90.95
10510;BME280;5303;53.266;10.410;2023-05-23T00:47:56;100973.97;;;15.20;90.88
10510;BME280;5303;53.266;10.410;2023-05-23T00:50:23;100974.84;;;15.20;91.12
10510;BME280;5303;53.266;10.410;2023-05-23T00:52:49;100980.13;;;15.22;91.03
10510;BME280;5303;53.266;10.410;2023-05-23T00:55:14;100973.94;;;15.23;90.85
10510;BME280;5303;53.266;10.410;2023-05-23T00:57:40;100973.88;;;15.26;90.98
10510;BME280;5303;53.266;10.410;2023-05-23T01:00:09;100972.13;;;15.25;91.06
10510;BME280;5303;53.266;10.410;2023-05-23T01:02:43;100969.47;;;15.25;90.82
10510;BME280;5303;53.266;10.410;2023-05-23T01:05:10;100978.31;;;15.25;90.82
10510;BME280;5303;53.266;10.410;2023-05-23T01:07:38;100972.13;;;15.25;90.99
10510;BME280;5303;53.266;10.410;2023-05-23T01:10:04;100961.50;;;15.25;90.78
10510;BME280;5303;53.266;10.410;2023-05-23T01:12:43;100959.75;;;15.24;90.86
10510;BME280;5303;53.266;10.410;2023-05-23T01:15:22;100962.41;;;15.24;91.05
10510;BME280;5303;53.266;10.410;2023-05-23T01:18:09;100954.44;;;15.24;91.11
10510;BME280;5303;53.266;10.410;2023-05-23T01:20:48;100961.50;;;15.25;90.94
10510;BME280;5303;53.266;10.410;2023-05-23T01:23:35;100948.19;;;15.25;90.97
10510;BME280;5303;53.266;10.410;2023-05-23T01:26:17;100953.53;;;15.25;90.89
10510;BME280;5303;53.266;10.410;2023-05-23T01:28:49;100956.19;;;15.25;90.86
10510;BME280;5303;53.266;10.410;2023-05-23T01:31:16;100957.06;;;15.25;90.82
10510;BME280;5303;53.266;10.410;2023-05-23T01:33:42;100954.34;;;15.27;91.04
10510;BME280;5303;53.266;10.410;2023-05-23T01:36:08;100966.75;;;15.28;90.91
10510;BME280;5303;53.266;10.410;2023-05-23T01:38:36;100959.59;;;15.30;90.91
10510;BME280;5303;53.266;10.410;2023-05-23T01:41:02;100956.91;;;15.32;91.16
10510;BME280;5303;53.266;10.410;2023-05-23T01:43:28;100960.44;;;15.32;90.92
10510;BME280;5303;53.266;10.410;2023-05-23T01:45:54;100956.00;;;15.34;91.28
10510;BME280;5303;53.266;10.410;2023-05-23T01:48:22;100957.75;;;15.35;91.05
10510;BME280;5303;53.266;10.410;2023-05-23T01:50:48;100959.50;;;15.36;90.97
10510;BME280;5303;53.266;10.410;2023-05-23T01:53:19;100962.19;;;15.35;91.09
10510;BME280;5303;53.266;10.410;2023-05-23T01:55:45;100956.88;;;15.35;90.91
10510;BME280;5303;53.266;10.410;2023-05-23T01:58:11;100958.53;;;15.39;90.95
10510;BME280;5303;53.266;10.410;2023-05-23T02:00:36;100954.13;;;15.38;90.90
10510;BME280;5303;53.266;10.410;2023-05-23T02:03:01;100954.09;;;15.39;90.55
10510;BME280;5303;53.266;10.410;2023-05-23T02:05:27;100961.16;;;15.40;90.84
10510;BME280;5303;53.266;10.410;2023-05-23T02:07:52;100955.81;;;15.42;90.67
10510;BME280;5303;53.266;10.410;2023-05-23T02:10:18;100950.34;;;15.49;90.07
10510;BME280;5303;53.266;10.410;2023-05-23T02:12:43;100953.91;;;15.48;90.05
10510;BME280;5303;53.266;10.410;2023-05-23T02:15:09;100953.06;;;15.46;90.15
10510;BME280;5303;53.266;10.410;2023-05-23T02:17:34;100949.50;;;15.47;90.22
10510;BME280;5303;53.266;10.410;2023-05-23T02:19:59;100968.00;;;15.53;89.99
10510;BME280;5303;53.266;10.410;2023-05-23T02:22:25;100961.66;;;15.59;89.87
10510;BME280;5303;53.266;10.410;2023-05-23T02:24:50;100958.16;;;15.57;89.69
10510;BME280;5303;53.266;10.410;2023-05-23T02:27:17;100963.56;;;15.54;89.66
10510;BME280;5303;53.266;10.410;2023-05-23T02:29:42;100965.22;;;15.58;89.76
10510;BME280;5303;53.266;10.410;2023-05-23T02:32:07;100962.69;;;15.53;89.72
10510;BME280;5303;53.266;10.410;2023-05-23T02:34:33;100968.84;;;15.55;89.77
10510;BME280;5303;53.266;10.410;2023-05-23T02:36:58;100962.53;;;15.61;89.42
10510;BME280;5303;53.266;10.410;2023-05-23T02:39:23;100969.69;;;15.57;89.35
10510;BME280;5303;53.266;10.410;2023-05-23T02:41:50;100967.13;;;15.53;88.38
10510;BME280;5303;53.266;10.410;2023-05-23T02:44:15;100975.84;;;15.60;87.51
10510;BME280;5303;53.266;10.410;2023-05-23T02:46:43;100976.94;;;15.49;87.41
10510;BME280;5303;53.266;10.410;2023-05-23T02:49:08;100973.31;;;15.53;87.11
10510;BME280;5303;53.266;10.410;2023-05-23T02:51:34;100975.19;;;15.48;86.86
10510;BME280;5303;53.266;10.410;2023-05-23T02:54:00;100979.00;;;15.35;87.38
10510;BME280;5303;53.266;10.410;2023-05-23T02:56:25;100980.75;;;15.36;87.06
10510;BME280;5303;53.266;10.410;2023-05-23T02:58:51;100972.78;;;15.36;86.85
10510;BME280;5303;53.266;10.410;2023-05-23T03:01:17;100977.25;;;15.34;86.56
10510;BME280;5303;53.266;10.410;2023-05-23T03:03:42;100973.81;;;15.29;86.73
10510;BME280;5303;53.266;10.410;2023-05-23T03:06:08;100983.81;;;15.16;86.76
10510;BME280;5303;53.266;10.410;2023-05-23T03:08:35;100979.44;;;15.14;86.74
10510;BME280;5303;53.266;10.410;2023-05-23T03:11:00;100983.03;;;15.10;86.95
10510;BME280;5303;53.266;10.410;2023-05-23T03:13:25;100982.25;;;15.05;86.98
10510;BME280;5303;53.266;10.410;2023-05-23T03:15:50;100990.25;;;15.02;87.16
10510;BME280;5303;53.266;10.410;2023-05-23T03:18:15;100984.94;;;15.02;86.83
10510;BME280;5303;53.266;10.410;2023-05-23T03:20:41;100979.69;;;14.98;86.22
10510;BME280;5303;53.266;10.410;2023-05-23T03:23:06;100986.91;;;14.93;86.78
10510;BME280;5303;53.266;10.410;2023-05-23T03:25:31;100994.13;;;14.85;86.92
10510;BME280;5303;53.266;10.410;2023-05-23T03:27:57;100983.44;;;14.88;86.85
10510;BME280;5303;53.266;10.410;2023-05-23T03:30:22;100978.25;;;14.82;86.27
10510;BME280;5303;53.266;10.410;2023-05-23T03:32:47;100967.72;;;14.76;86.73
10510;BME280;5303;53.266;10.410;2023-05-23T03:35:13;100974.75;;;14.79;86.69
10510;BME280;5303;53.266;10.410;2023-05-23T03:37:39;100969.47;;;14.77;86.72
10510;BME280;5303;53.266;10.410;2023-05-23T03:40:05;100982.78;;;14.76;87.15
10510;BME280;5303;53.266;10.410;2023-05-23T03:42:31;100985.63;;;14.65;87.04
10510;BME280;5303;53.266;10.410;2023-05-23T03:44:56;100992.59;;;14.72;87.16
10510;BME280;5303;53.266;10.410;2023-05-23T03:47:22;100997.00;;;14.73;87.11
10510;BME280;5303;53.266;10.410;2023-05-23T03:49:48;100986.41;;;14.70;87.35
10510;BME280;5303;53.266;10.410;2023-05-23T03:52:14;100985.56;;;14.68;87.11
10510;BME280;5303;53.266;10.410;2023-05-23T03:54:39;100983.81;;;14.67;87.49
10510;BME280;5303;53.266;10.410;2023-05-23T03:57:04;100979.41;;;14.66;87.67
10510;BME280;5303;53.266;10.410;2023-05-23T03:59:29;100978.56;;;14.64;87.83
10510;BME280;5303;53.266;10.410;2023-05-23T04:01:55;100981.91;;;14.75;87.69
10510;BME280;5303;53.266;10.410;2023-05-23T04:04:22;100985.47;;;14.74;87.31
10510;BME280;5303;53.266;10.410;2023-05-23T04:06:49;100979.31;;;14.72;87.07
10510;BME280;5303;53.266;10.410;2023-05-23T04:09:14;100974.88;;;14.71;87.01
10510;BME280;5303;53.266;10.410;2023-05-23T04:11:40;100982.81;;;14.74;85.90
10510;BME280;5303;53.266;10.410;2023-05-23T04:14:05;100995.34;;;14.66;85.92
10510;BME280;5303;53.266;10.410;2023-05-23T04:16:32;100997.97;;;14.67;86.52
10510;BME280;5303;53.266;10.410;2023-05-23T04:18:58;100989.03;;;14.73;84.94
10510;BME280;5303;53.266;10.410;2023-05-23T04:21:24;100990.81;;;14.73;84.94
10510;BME280;5303;53.266;10.410;2023-05-23T04:23:49;100988.19;;;14.69;85.28
10510;BME280;5303;53.266;10.410;2023-05-23T04:26:15;100986.50;;;14.65;85.68
10510;BME280;5303;53.266;10.410;2023-05-23T04:28:42;100985.59;;;14.66;85.41
10510;BME280;5303;53.266;10.410;2023-05-23T04:31:10;100982.91;;;14.68;84.91
10510;BME280;5303;53.266;10.410;2023-05-23T04:33:36;100977.53;;;14.71;84.78
10510;BME280;5303;53.266;10.410;2023-05-23T04:36:02;100987.38;;;14.66;84.84
10510;BME280;5303;53.266;10.410;2023-05-23T04:38:27;100987.47;;;14.60;84.63
10510;BME280;5303;53.266;10.410;2023-05-23T04:40:53;100993.78;;;14.54;85.19
10510;BME280;5303;53.266;10.410;2023-05-23T04:43:18;100986.69;;;14.55;85.08
10510;BME280;5303;53.266;10.410;2023-05-23T04:45:47;100986.69;;;14.55;85.41
10510;BME280;5303;53.266;10.410;2023-05-23T04:48:15;100989.34;;;14.55;84.95
10510;BME280;5303;53.266;10.410;2023-05-23T04:50:41;100986.75;;;14.52;85.14
10510;BME280;5303;53.266;10.410;2023-05-23T04:53:07;100981.47;;;14.49;84.67
10510;BME280;5303;53.266;10.410;2023-05-23T04:55:32;100981.44;;;14.50;84.91
10510;BME280;5303;53.266;10.410;2023-05-23T04:57:59;100990.28;;;14.49;85.09
10510;BME280;5303;53.266;10.410;2023-05-23T05:00:25;100995.69;;;14.45;85.09
10510;BME280;5303;53.266;10.410;2023-05-23T05:02:50;101000.13;;;14.43;85.16
10510;BME280;5303;53.266;10.410;2023-05-23T05:05:16;101010.03;;;14.31;85.29
10510;BME280;5303;53.266;10.410;2023-05-23T05:07:41;100995.00;;;14.30;85.04
10510;BME280;5303;53.266;10.410;2023-05-23T05:10:07;100998.69;;;14.22;85.49
10510;BME280;5303;53.266;10.410;2023-05-23T05:12:33;100996.94;;;14.19;85.84
10510;BME280;5303;53.266;10.410;2023-05-23T05:14:58;100998.72;;;14.20;86.08
10510;BME280;5303;53.266;10.410;2023-05-23T05:17:23;101004.84;;;14.24;85.85
10510;BME280;5303;53.266;10.410;2023-05-23T05:19:49;101011.03;;;14.23;85.70
10510;BME280;5303;53.266;10.410;2023-05-23T05:22:15;101015.50;;;14.19;86.00
10510;BME280;5303;53.266;10.410;2023-05-23T05:24:40;101014.56;;;14.23;85.42
10510;BME280;5303;53.266;10.410;2023-05-23T05:27:05;101018.13;;;14.22;85.30
10510;BME280;5303;53.266;10.410;2023-05-23T05:29:31;101013.72;;;14.21;84.84
10510;BME280;5303;53.266;10.410;2023-05-23T05:31:58;101023.47;;;14.19;84.91
10510;BME280;5303;53.266;10.410;2023-05-23T05:34:25;101014.66;;;14.17;84.54
10510;BME280;5303;53.266;10.410;2023-05-23T05:36:50;101009.41;;;14.14;85.09
10510;BME280;5303;53.266;10.410;2023-05-23T05:39:19;101005.00;;;14.13;85.18
10510;BME280;5303;53.266;10.410;2023-05-23T05:41:45;101010.34;;;14.08;85.34
10510;BME280;5303;53.266;10.410;2023-05-23T05:44:10;101013.00;;;14.10;85.45
10510;BME280;5303;53.266;10.410;2023-05-23T05:46:35;101020.06;;;14.11;85.91
10510;BME280;5303;53.266;10.410;2023-05-23T05:49:01;101017.47;;;14.05;85.96
10510;BME280;5303;53.266;10.410;2023-05-23T05:51:26;101019.25;;;14.06;86.45
10510;BME280;5303;53.266;10.410;2023-05-23T05:53:51;101022.63;;;14.16;86.09
10510;BME280;5303;53.266;10.410;2023-05-23T05:56:16;101023.56;;;14.13;85.53
10510;BME280;5303;53.266;10.410;2023-05-23T05:58:42;101018.19;;;14.16;85.25
10510;BME280;5303;53.266;10.410;2023-05-23T06:01:07;101029.84;;;14.06;85.75
10510;BME280;5303;53.266;10.410;2023-05-23T06:03:32;101027.13;;;14.09;85.55
10510;BME280;5303;53.266;10.410;2023-05-23T06:05:58;101025.38;;;14.11;85.79
10510;BME280;5303;53.266;10.410;2023-05-23T06:08:23;101027.06;;;14.15;85.72
10510;BME280;5303;53.266;10.410;2023-05-23T06:10:49;101027.91;;;14.17;85.70
10510;BME280;5303;53.266;10.410;2023-05-23T06:13:14;101027.03;;;14.17;85.58
10510;BME280;5303;53.266;10.410;2023-05-23T06:15:39;101025.38;;;14.11;86.13
10510;BME280;5303;53.266;10.410;2023-05-23T06:18:05;101027.13;;;14.12;86.31
10510;BME280;5303;53.266;10.410;2023-05-23T06:20:30;101029.66;;;14.18;86.38
10510;BME280;5303;53.266;10.410;2023-05-23T06:22:55;101027.00;;;14.18;86.10
10510;BME280;5303;53.266;10.410;2023-05-23T06:25:21;101032.28;;;14.21;85.79
10510;BME280;5303;53.266;10.410;2023-05-23T06:27:46;101025.22;;;14.22;85.71
10510;BME280;5303;53.266;10.410;2023-05-23T06:30:12;101022.63;;;14.16;86.14
10510;BME280;5303;53.266;10.410;2023-05-23T06:32:37;101025.25;;;14.17;86.20
10510;BME280;5303;53.266;10.410;2023-05-23T06:35:03;101023.31;;;14.28;86.43
10510;BME280;5303;53.266;10.410;2023-05-23T06:37:28;101028.78;;;14.21;86.42
10510;BME280;5303;53.266;10.410;2023-05-23T06:39:53;101030.53;;;14.19;86.80
10510;BME280;5303;53.266;10.410;2023-05-23T06:42:19;101032.25;;;14.24;86.78
10510;BME280;5303;53.266;10.410;2023-05-23T06:44:44;101037.50;;;14.27;86.18
10510;BME280;5303;53.266;10.410;2023-05-23T06:47:09;101033.16;;;14.23;86.41
10510;BME280;5303;53.266;10.410;2023-05-23T06:49:34;101036.72;;;14.21;86.86
10510;BME280;5303;53.266;10.410;2023-05-23T06:52:00;101027.81;;;14.25;87.12
10510;BME280;5303;53.266;10.410;2023-05-23T06:54:25;101027.88;;;14.22;86.79
10510;BME280;5303;53.266;10.410;2023-05-23T06:56:50;101028.59;;;14.31;87.19
10510;BME280;5303;53.266;10.410;2023-05-23T06:59:15;101019.78;;;14.29;87.22
10510;BME280;5303;53.266;10.410;2023-05-23T07:01:41;101024.13;;;14.35;87.04
10510;BME280;5303;53.266;10.410;2023-05-23T07:04:06;101032.13;;;14.33;87.22
10510;BME280;5303;53.266;10.410;2023-05-23T07:06:31;101024.94;;;14.38;86.48
10510;BME280;5303;53.266;10.410;2023-05-23T07:08:57;101026.75;;;14.36;86.73
10510;BME280;5303;53.266;10.410;2023-05-23T07:11:22;101029.34;;;14.41;86.78
10510;BME280;5303;53.266;10.410;2023-05-23T07:13:48;101035.50;;;14.45;86.51
10510;BME280;5303;53.266;10.410;2023-05-23T07:16:13;101028.41;;;14.47;86.33
10510;BME280;5303;53.266;10.410;2023-05-23T07:18:39;101028.34;;;14.50;86.61
10510;BME280;5303;53.266;10.410;2023-05-23T07:21:04;101037.19;;;14.52;86.35
10510;BME280;5303;53.266;10.410;2023-05-23T07:23:33;101035.38;;;14.54;86.35
10510;BME280;5303;53.266;10.410;2023-05-23T07:25:59;101035.41;;;14.51;86.74
10510;BME280;5303;53.266;10.410;2023-05-23T07:28:24;101034.47;;;14.55;86.56
10510;BME280;5303;53.266;10.410;2023-05-23T07:30:50;101041.53;;;14.56;86.54
10510;BME280;5303;53.266;10.410;2023-05-23T07:33:15;101035.41;;;14.51;87.24
10510;BME280;5303;53.266;10.410;2023-05-23T07:35:40;101042.50;;;14.49;87.13
10510;BME280;5303;53.266;10.410;2023-05-23T07:38:06;101039.84;;;14.52;86.94
10510;BME280;5303;53.266;10.410;2023-05-23T07:40:31;101044.25;;;14.50;87.68
10510;BME280;5303;53.266;10.410;2023-05-23T07:42:56;101040.75;;;14.48;87.16
10510;BME280;5303;53.266;10.410;2023-05-23T07:45:22;101040.88;;;14.38;88.21
10510;BME280;5303;53.266;10.410;2023-05-23T07:47:47;101046.94;;;14.48;87.63
10510;BME280;5303;53.266;10.410;2023-05-23T07:50:13;101046.94;;;14.48;87.81
10510;BME280;5303;53.266;10.410;2023-05-23T07:52:38;101045.34;;;14.35;88.31
10510;BME280;5303;53.266;10.410;2023-05-23T07:55:04;101042.56;;;14.46;88.04
10510;BME280;5303;53.266;10.410;2023-05-23T07:57:29;101050.53;;;14.44;88.23
10510;BME280;5303;53.266;10.410;2023-05-23T07:59:55;101049.56;;;14.50;88.52
10510;BME280;5303;53.266;10.410;2023-05-23T08:02:20;101048.66;;;14.51;88.66
10510;BME280;5303;53.266;10.410;2023-05-23T08:04:47;101049.56;;;14.51;88.74
10510;BME280;5303;53.266;10.410;2023-05-23T08:07:12;101049.56;;;14.50;89.21
10510;BME280;5303;53.266;10.410;2023-05-23T08:09:38;101049.44;;;14.59;88.56
10510;BME280;5303;53.266;10.410;2023-05-23T08:12:05;101061.78;;;14.63;88.57
10510;BME280;5303;53.266;10.410;2023-05-23T08:14:30;101052.91;;;14.64;88.44
10510;BME280;5303;53.266;10.410;2023-05-23T08:16:55;101053.75;;;14.66;88.37
10510;BME280;5303;53.266;10.410;2023-05-23T08:19:21;101062.56;;;14.68;88.45
10510;BME280;5303;53.266;10.410;2023-05-23T08:21:46;101069.72;;;14.64;88.27
10510;BME280;5303;53.266;10.410;2023-05-23T08:24:11;101064.34;;;14.67;87.60
10510;BME280;5303;53.266;10.410;2023-05-23T08:26:40;101079.53;;;14.58;88.13
10510;BME280;5303;53.266;10.410;2023-05-23T08:29:06;101085.03;;;14.46;88.05
10510;BME280;5303;53.266;10.410;2023-05-23T08:31:31;101087.91;;;14.30;87.26
10510;BME280;5303;53.266;10.410;2023-05-23T08:33:58;101086.31;;;14.16;87.57
10510;BME280;5303;53.266;10.410;2023-05-23T08:36:23;101085.47;;;14.13;88.24
10510;BME280;5303;53.266;10.410;2023-05-23T08:38:49;101090.91;;;14.03;87.67
10510;BME280;5303;53.266;10.410;2023-05-23T08:41:22;101098.13;;;13.89;87.90
10510;BME280;5303;53.266;10.410;2023-05-23T08:43:48;101096.31;;;13.94;87.89
10510;BME280;5303;53.266;10.410;2023-05-23T08:46:14;101098.19;;;13.86;87.43
10510;BME280;5303;53.266;10.410;2023-05-23T08:48:41;101103.50;;;13.86;87.37
10510;BME280;5303;53.266;10.410;2023-05-23T08:51:08;101106.09;;;13.90;87.66
10510;BME280;5303;53.266;10.410;2023-05-23T08:53:37;101116.56;;;13.99;87.01
10510;BME280;5303;53.266;10.410;2023-05-23T08:56:05;101112.09;;;14.04;87.63
10510;BME280;5303;53.266;10.410;2023-05-23T08:58:31;101117.38;;;14.06;86.82
10510;BME280;5303;53.266;10.410;2023-05-23T09:00:58;101118.94;;;14.24;87.12
10510;BME280;5303;53.266;10.410;2023-05-23T09:03:27;101119.69;;;14.33;85.66
10510;BME280;5303;53.266;10.410;2023-05-23T09:05:54;101131.94;;;14.45;84.98
10510;BME280;5303;53.266;10.410;2023-05-23T09:08:23;101124.59;;;14.64;84.22
10510;BME280;5303;53.266;10.410;2023-05-23T09:10:53;101143.88;;;14.77;83.42
10510;BME280;5303;53.266;10.410;2023-05-23T09:13:18;101150.13;;;14.74;82.58
10510;BME280;5303;53.266;10.410;2023-05-23T09:16:02;101148.69;;;14.52;82.32
10510;BME280;5303;53.266;10.410;2023-05-23T09:18:36;101143.50;;;14.38;82.38
10510;BME280;5303;53.266;10.410;2023-05-23T09:21:02;101157.91;;;14.20;83.10
10510;BME280;5303;53.266;10.410;2023-05-23T09:23:32;101161.50;;;14.15;82.64
10510;BME280;5303;53.266;10.410;2023-05-23T09:26:15;101175.72;;;14.10;83.67
10510;BME280;5303;53.266;10.410;2023-05-23T09:28:42;101178.28;;;14.17;82.77
10510;BME280;5303;53.266;10.410;2023-05-23T09:31:08;101179.09;;;14.23;82.84
10510;BME280;5303;53.266;10.410;2023-05-23T09:33:45;101175.72;;;14.09;82.33
10510;BME280;5303;53.266;10.410;2023-05-23T09:36:17;101181.09;;;14.03;81.71
10510;BME280;5303;53.266;10.410;2023-05-23T09:38:44;101185.44;;;14.08;81.62
10510;BME280;5303;53.266;10.410;2023-05-23T09:41:10;101183.72;;;14.04;81.08
10510;BME280;5303;53.266;10.410;2023-05-23T09:43:48;101181.97;;;14.03;81.22
10510;BME280;5303;53.266;10.410;2023-05-23T09:46:14;101184.56;;;14.08;81.57
10510;BME280;5303;53.266;10.410;2023-05-23T09:48:45;101186.22;;;14.18;80.90
10510;BME280;5303;53.266;10.410;2023-05-23T09:51:10;101196.78;;;14.24;80.68
10510;BME280;5303;53.266;10.410;2023-05-23T09:53:36;101199.34;;;14.32;80.80
10510;BME280;5303;53.266;10.410;2023-05-23T09:56:02;101200.28;;;14.26;80.49
10510;BME280;5303;53.266;10.410;2023-05-23T09:58:28;101201.19;;;14.24;80.61
10510;BME280;5303;53.266;10.410;2023-05-23T10:00:55;101205.59;;;14.26;80.60
10510;BME280;5303;53.266;10.410;2023-05-23T10:03:43;101214.72;;;14.01;82.35
10510;BME280;5303;53.266;10.410;2023-05-23T10:09:01;101225.34;;;14.01;83.09
10510;BME280;5303;53.266;10.410;2023-05-23T10:14:05;101239.00;;;13.57;84.58
10510;BME280;5303;53.266;10.410;2023-05-23T10:16:48;101244.47;;;13.40;85.02
10510;BME280;5303;53.266;10.410;2023-05-23T10:19:24;101249.84;;;13.24;85.47
10510;BME280;5303;53.266;10.410;2023-05-23T10:21:57;101246.34;;;13.16;85.77
10510;BME280;5303;53.266;10.410;2023-05-23T10:24:23;101256.06;;;13.14;86.41
10510;BME280;5303;53.266;10.410;2023-05-23T10:26:49;101252.56;;;13.12;86.79
10510;BME280;5303;53.266;10.410;2023-05-23T10:29:15;101260.59;;;13.00;87.17
10510;BME280;5303;53.266;10.410;2023-05-23T10:31:40;101272.94;;;12.96;87.38
10510;BME280;5303;53.266;10.410;2023-05-23T10:37:02;101278.38;;;12.78;87.97
10510;BME280;5303;53.266;10.410;2023-05-23T10:41:59;101285.47;;;12.68;88.01
10510;BME280;5303;53.266;10.410;2023-05-23T10:44:28;101292.53;;;12.63;88.18
10510;BME280;5303;53.266;10.410;2023-05-23T10:46:56;101295.22;;;12.59;88.66
10510;BME280;5303;53.266;10.410;2023-05-23T10:49:46;101314.66;;;12.47;88.25
10510;BME280;5303;53.266;10.410;2023-05-23T10:52:15;101310.22;;;12.49;88.16
10510;BME280;5303;53.266;10.410;2023-05-23T10:54:45;101299.66;;;12.35;87.94
10510;BME280;5303;53.266;10.410;2023-05-23T10:57:14;101316.41;;;12.36;87.99
10510;BME280;5303;53.266;10.410;2023-05-23T10:59:40;101319.06;;;12.34;88.31
10510;BME280;5303;53.266;10.410;2023-05-23T11:02:11;101327.88;;;12.35;88.16
10510;BME280;5303;53.266;10.410;2023-05-23T11:04:37;101335.84;;;12.32;88.31
10510;BME280;5303;53.266;10.410;2023-05-23T11:07:03;101334.09;;;12.28;88.12
10510;BME280;5303;53.266;10.410;2023-05-23T11:09:28;101339.38;;;12.22;88.03
10510;BME280;5303;53.266;10.410;2023-05-23T11:12:00;101349.09;;;12.15;87.86
10510;BME280;5303;53.266;10.410;2023-05-23T11:14:33;101349.97;;;12.03;87.54
10510;BME280;5303;53.266;10.410;2023-05-23T11:17:00;101350.84;;;12.02;87.66
10510;BME280;5303;53.266;10.410;2023-05-23T11:19:39;101346.47;;;12.01;87.49
10510;BME280;5303;53.266;10.410;2023-05-23T11:22:07;101347.34;;;12.02;87.66
10510;BME280;5303;53.266;10.410;2023-05-23T11:24:52;101342.94;;;12.02;86.89
10510;BME280;5303;53.266;10.410;2023-05-23T11:27:31;101350.84;;;11.93;86.25
10510;BME280;5303;53.266;10.410;2023-05-23T11:30:13;101356.16;;;12.01;86.01
10510;BME280;5303;53.266;10.410;2023-05-23T11:32:39;101363.22;;;12.11;86.00
10510;BME280;5303;53.266;10.410;2023-05-23T11:35:05;101364.97;;;12.12;85.63
10510;BME280;5303;53.266;10.410;2023-05-23T11:37:33;101363.22;;;12.11;85.24
10510;BME280;5303;53.266;10.410;2023-05-23T11:39:59;101370.25;;;12.12;84.60
10510;BME280;5303;53.266;10.410;2023-05-23T11:42:44;101373.78;;;12.14;84.25
10510;BME280;5303;53.266;10.410;2023-05-23T11:45:10;101377.31;;;12.21;84.57
10510;BME280;5303;53.266;10.410;2023-05-23T11:47:40;101380.81;;;12.24;84.08
10510;BME280;5303;53.266;10.410;2023-05-23T11:50:05;101387.00;;;12.28;84.31
10510;BME280;5303;53.266;10.410;2023-05-23T11:52:31;101381.72;;;12.28;83.27
10510;BME280;5303;53.266;10.410;2023-05-23T11:55:00;101392.28;;;12.25;82.29
10510;BME280;5303;53.266;10.410;2023-05-23T11:57:25;101401.97;;;12.26;81.75
10510;BME280;5303;53.266;10.410;2023-05-23T11:59:51;101397.56;;;12.25;81.15
10510;BME280;5303;53.266;10.410;2023-05-23T12:02:16;101396.69;;;12.23;80.88
10510;BME280;5303;53.266;10.410;2023-05-23T12:04:41;101393.16;;;12.34;81.20
10510;BME280;5303;53.266;10.410;2023-05-23T12:07:06;101394.03;;;12.52;80.40
10510;BME280;5303;53.266;10.410;2023-05-23T12:09:40;101390.47;;;12.63;79.70
10510;BME280;5303;53.266;10.410;2023-05-23T12:12:06;101400.13;;;12.77;79.73
10510;BME280;5303;53.266;10.410;2023-05-23T12:14:32;101386.00;;;12.84;75.71
10510;BME280;5303;53.266;10.410;2023-05-23T12:16:58;101397.41;;;13.03;76.59
10510;BME280;5303;53.266;10.410;2023-05-23T12:19:23;101405.28;;;13.18;76.83
10510;BME280;5303;53.266;10.410;2023-05-23T12:21:49;101407.94;;;13.32;75.25
10510;BME280;5303;53.266;10.410;2023-05-23T12:24:23;101393.72;;;13.43;75.78
10510;BME280;5303;53.266;10.410;2023-05-23T12:26:59;101391.84;;;13.62;75.32
10510;BME280;5303;53.266;10.410;2023-05-23T12:29:32;101399.72;;;13.73;71.96
10510;BME280;5303;53.266;10.410;2023-05-23T12:31:59;101409.47;;;13.72;70.51
10510;BME280;5303;53.266;10.410;2023-05-23T12:34:24;101411.31;;;13.61;69.41
10510;BME280;5303;53.266;10.410;2023-05-23T12:36:57;101410.34;;;13.73;70.39
10510;BME280;5303;53.266;10.410;2023-05-23T12:39:27;101413.00;;;13.71;69.76
10510;BME280;5303;53.266;10.410;2023-05-23T12:41:53;101408.50;;;13.82;68.25
10510;BME280;5303;53.266;10.410;2023-05-23T12:44:20;101408.44;;;13.93;69.02
10510;BME280;5303;53.266;10.410;2023-05-23T12:46:46;101413.59;;;14.08;68.76
10510;BME280;5303;53.266;10.410;2023-05-23T12:49:12;101402.91;;;14.18;66.38
10510;BME280;5303;53.266;10.410;2023-05-23T12:51:37;101408.13;;;14.31;65.70
10510;BME280;5303;53.266;10.410;2023-05-23T12:54:02;101421.28;;;14.47;66.02
10510;BME280;5303;53.266;10.410;2023-05-23T12:56:28;101410.56;;;14.56;65.94
10510;BME280;5303;53.266;10.410;2023-05-23T12:58:53;101418.44;;;14.65;65.67
10510;BME280;5303;53.266;10.410;2023-05-23T13:01:19;101427.25;;;14.70;64.94